createdAt,value
2022-08-14T00:01:57.655Z,99.90
2022-08-14T00:04:35.830Z,99.90
2022-08-14T00:07:11.280Z,99.90
2022-08-14T00:09:39.565Z,99.90
2022-08-14T00:12:24.339Z,99.90
2022-08-14T00:14:54.827Z,99.90
2022-08-14T00:17:22.198Z,99.90
2022-08-14T00:19:48.844Z,99.90
2022-08-14T00:22:22.139Z,99.90
2022-08-14T00:25:09.584Z,99.90
2022-08-14T00:27:37.867Z,99.90
2022-08-14T00:30:11.173Z,99.90
2022-08-14T00:32:56.157Z,99.90
2022-08-14T00:36:34.272Z,99.90
2022-08-14T00:38:10.685Z,99.90
2022-08-14T00:40:37.542Z,99.90
2022-08-14T00:43:04.988Z,99.90
2022-08-14T00:45:31.908Z,99.90
2022-08-14T00:48:00.069Z,99.90
2022-08-14T00:50:28.614Z,99.90
2022-08-14T00:52:55.866Z,99.90
2022-08-14T00:55:23.260Z,99.90
2022-08-14T00:58:10.178Z,99.90
2022-08-14T01:00:47.557Z,99.90
2022-08-14T01:03:20.134Z,99.90
2022-08-14T01:05:51.895Z,99.90
2022-08-14T01:08:52.361Z,99.90
2022-08-14T01:11:09.739Z,99.90
2022-08-14T01:13:42.224Z,99.90
2022-08-14T01:16:14.957Z,99.90
2022-08-14T01:19:02.389Z,99.90
2022-08-14T01:21:38.624Z,99.90
2022-08-14T01:24:10.980Z,99.90
2022-08-14T01:26:39.223Z,99.90
2022-08-14T01:29:06.658Z,99.90
2022-08-14T01:31:50.207Z,99.90
2022-08-14T01:35:21.144Z,99.90
2022-08-14T01:37:04.567Z,99.90
2022-08-14T01:39:34.396Z,99.90
2022-08-14T01:42:05.199Z,99.90
2022-08-14T01:44:37.882Z,99.90
2022-08-14T01:47:21.570Z,99.90
2022-08-14T01:50:01.234Z,99.90
2022-08-14T01:52:59.073Z,99.90
2022-08-14T01:55:25.079Z,99.90
2022-08-14T01:58:01.618Z,99.90
2022-08-14T02:00:41.832Z,99.90
2022-08-14T02:03:08.474Z,99.90
2022-08-14T02:05:38.453Z,99.90
2022-08-14T02:08:08.743Z,99.90
2022-08-14T02:10:46.221Z,99.90
2022-08-14T02:13:16.569Z,99.90
2022-08-14T02:15:44.263Z,99.90
2022-08-14T02:18:11.756Z,99.90
2022-08-14T02:20:42.031Z,99.90
2022-08-14T02:23:09.061Z,99.90
2022-08-14T02:25:36.610Z,99.90
2022-08-14T02:28:22.752Z,99.90
2022-08-14T02:30:52.407Z,99.90
2022-08-14T02:33:19.632Z,99.90
2022-08-14T02:35:48.288Z,99.90
2022-08-14T02:38:30.005Z,99.90
2022-08-14T02:40:58.612Z,99.90
2022-08-14T02:43:36.589Z,99.90
2022-08-14T02:46:03.543Z,99.90
2022-08-14T02:49:03.008Z,99.90
2022-08-14T02:51:23.515Z,99.90
2022-08-14T02:53:51.850Z,99.90
2022-08-14T02:56:30.783Z,99.90
2022-08-14T02:59:08.040Z,99.90
2022-08-14T03:01:43.566Z,99.90
2022-08-14T03:04:20.372Z,99.90
2022-08-14T03:06:57.501Z,99.90
2022-08-14T03:09:42.438Z,99.90
2022-08-14T03:12:31.000Z,99.90
2022-08-14T03:15:15.916Z,99.90
2022-08-14T03:17:57.074Z,99.90
2022-08-14T03:20:28.761Z,99.90
2022-08-14T03:22:59.280Z,99.90
2022-08-14T03:25:27.025Z,99.90
2022-08-14T03:27:58.997Z,99.90
2022-08-14T03:30:38.837Z,99.90
2022-08-14T03:33:10.553Z,99.90
2022-08-14T03:35:40.134Z,99.90
2022-08-14T03:39:13.993Z,99.90
2022-08-14T03:41:17.703Z,99.90
2022-08-14T03:43:45.420Z,99.90
2022-08-14T03:46:52.692Z,99.90
2022-08-14T03:49:02.766Z,99.90
2022-08-14T03:51:30.124Z,99.90
2022-08-14T03:53:58.027Z,99.90
2022-08-14T03:56:26.569Z,99.90
2022-08-14T03:58:59.038Z,99.90
2022-08-14T04:01:29.156Z,99.90
2022-08-14T04:04:07.837Z,99.90
2022-08-14T04:06:47.691Z,99.90
2022-08-14T04:09:15.429Z,99.90
2022-08-14T04:11:43.696Z,99.90
2022-08-14T04:14:10.410Z,99.90
2022-08-14T04:16:47.939Z,99.90
2022-08-14T04:19:18.843Z,99.90
2022-08-14T04:22:03.476Z,99.90
2022-08-14T04:24:37.859Z,99.90
2022-08-14T04:27:13.207Z,99.90
2022-08-14T04:29:44.987Z,99.90
2022-08-14T04:32:58.417Z,99.90
2022-08-14T04:35:00.576Z,99.90
2022-08-14T04:37:46.311Z,99.90
2022-08-14T04:40:40.618Z,99.90
2022-08-14T04:43:26.408Z,99.90
2022-08-14T04:46:07.304Z,99.90
2022-08-14T04:48:41.009Z,99.90
2022-08-14T04:51:13.715Z,99.90
2022-08-14T04:53:43.852Z,99.90
2022-08-14T04:56:31.626Z,99.90
2022-08-14T04:59:04.862Z,99.90
2022-08-14T05:01:39.852Z,99.90
2022-08-14T05:04:07.165Z,99.90
2022-08-14T05:06:37.919Z,99.90
2022-08-14T05:09:07.134Z,99.90
2022-08-14T05:11:37.141Z,99.90
2022-08-14T05:14:16.853Z,99.90
2022-08-14T05:16:52.059Z,99.90
2022-08-14T05:19:27.003Z,99.90
2022-08-14T05:22:16.432Z,99.90
2022-08-14T05:24:49.751Z,99.90
2022-08-14T05:27:22.365Z,99.90
2022-08-14T05:29:51.808Z,99.90
2022-08-14T05:32:18.443Z,99.90
2022-08-14T05:34:47.117Z,99.90
2022-08-14T05:37:15.242Z,99.90
2022-08-14T05:39:42.831Z,99.90
2022-08-14T05:42:10.053Z,99.90
2022-08-14T05:44:49.184Z,99.90
2022-08-14T05:47:17.457Z,99.90
2022-08-14T05:49:46.096Z,99.90
2022-08-14T05:52:12.905Z,99.90
2022-08-14T05:54:44.798Z,99.90
2022-08-14T05:57:11.450Z,99.90
2022-08-14T05:59:39.654Z,99.90
2022-08-14T06:02:11.053Z,99.90
2022-08-14T06:04:38.874Z,99.90
2022-08-14T06:07:06.613Z,99.90
2022-08-14T06:09:35.422Z,99.90
2022-08-14T06:12:08.621Z,99.90
2022-08-14T06:14:36.315Z,99.90
2022-08-14T06:17:03.877Z,99.90
2022-08-14T06:19:30.709Z,99.90
2022-08-14T06:21:59.116Z,99.90
2022-08-14T06:24:27.494Z,99.90
2022-08-14T06:27:04.425Z,99.90
2022-08-14T06:29:34.951Z,99.90
2022-08-14T06:32:36.465Z,99.90
2022-08-14T06:35:03.104Z,99.90
2022-08-14T06:37:43.516Z,99.90
2022-08-14T06:40:25.656Z,99.90
2022-08-14T06:42:57.098Z,99.90
2022-08-14T06:45:27.663Z,99.90
2022-08-14T06:47:55.258Z,99.90
2022-08-14T06:50:29.925Z,99.90
2022-08-14T06:52:58.512Z,99.90
2022-08-14T06:55:27.928Z,99.90
2022-08-14T06:57:55.278Z,99.90
2022-08-14T07:00:31.174Z,99.90
2022-08-14T07:03:17.677Z,99.90
2022-08-14T07:05:57.627Z,99.90
2022-08-14T07:08:26.574Z,99.90
2022-08-14T07:10:59.482Z,99.90
2022-08-14T07:13:27.475Z,99.90
2022-08-14T07:15:56.571Z,99.90
2022-08-14T07:18:30.290Z,99.90
2022-08-14T07:20:59.127Z,99.90
2022-08-14T07:23:26.451Z,99.90
2022-08-14T07:25:56.461Z,99.90
2022-08-14T07:28:27.009Z,99.90
2022-08-14T07:30:57.637Z,99.90
2022-08-14T07:33:35.057Z,99.90
2022-08-14T07:36:09.047Z,99.90
2022-08-14T07:38:53.329Z,99.90
2022-08-14T07:41:20.080Z,99.90
2022-08-14T07:43:47.646Z,99.90
2022-08-14T07:46:28.473Z,99.90
2022-08-14T07:48:56.806Z,99.90
2022-08-14T07:51:23.886Z,99.90
2022-08-14T07:53:57.130Z,99.90
2022-08-14T07:56:47.369Z,99.90
2022-08-14T07:59:11.506Z,99.90
2022-08-14T08:01:51.323Z,99.90
2022-08-14T08:04:24.122Z,99.90
2022-08-14T08:06:52.326Z,99.90
2022-08-14T08:09:25.023Z,99.90
2022-08-14T08:12:01.603Z,99.90
2022-08-14T08:14:56.579Z,99.90
2022-08-14T08:17:23.320Z,99.90
2022-08-14T08:19:51.411Z,99.90
2022-08-14T08:22:21.046Z,99.90
2022-08-14T08:24:50.319Z,99.90
2022-08-14T08:27:19.753Z,99.90
2022-08-14T08:29:50.504Z,99.90
2022-08-14T08:32:18.055Z,99.90
2022-08-14T08:34:46.796Z,99.90
2022-08-14T08:37:14.712Z,99.90
2022-08-14T08:40:01.367Z,99.90
2022-08-14T08:42:31.501Z,99.90
2022-08-14T08:45:05.651Z,99.90
2022-08-14T08:47:40.282Z,99.90
2022-08-14T08:50:31.624Z,99.90
2022-08-14T08:53:00.100Z,99.90
2022-08-14T08:55:55.707Z,99.90
2022-08-14T08:58:25.093Z,99.90
2022-08-14T09:00:55.434Z,99.90
2022-08-14T09:03:28.906Z,99.90
2022-08-14T09:06:01.413Z,99.90
2022-08-14T09:08:33.011Z,99.90
2022-08-14T09:11:19.059Z,99.90
2022-08-14T09:13:52.556Z,99.90
2022-08-14T09:16:25.751Z,99.90
2022-08-14T09:18:53.487Z,99.90
2022-08-14T09:21:21.106Z,99.90
2022-08-14T09:24:30.248Z,99.90
2022-08-14T09:26:39.627Z,99.90
2022-08-14T09:29:06.570Z,99.90
2022-08-14T09:31:42.540Z,99.90
2022-08-14T09:34:58.319Z,99.90
2022-08-14T09:37:28.907Z,99.90
2022-08-14T09:40:23.655Z,99.90
2022-08-14T09:43:10.175Z,99.90
2022-08-14T09:45:53.512Z,99.90
2022-08-14T09:48:30.002Z,99.90
2022-08-14T09:54:13.594Z,99.90
2022-08-14T09:56:31.860Z,99.90
2022-08-14T09:59:15.269Z,99.90
2022-08-14T10:01:43.654Z,99.90
2022-08-14T10:04:33.818Z,99.90
2022-08-14T10:07:05.563Z,99.90
2022-08-14T10:09:33.541Z,99.90
2022-08-14T10:12:04.434Z,99.90
2022-08-14T10:14:36.721Z,99.90
2022-08-14T10:17:06.417Z,99.90
2022-08-14T10:19:46.685Z,99.90
2022-08-14T10:23:15.125Z,99.90
2022-08-14T10:25:10.749Z,99.90
2022-08-14T10:27:37.391Z,99.90
2022-08-14T10:30:22.348Z,99.90
2022-08-14T10:32:51.626Z,99.90
2022-08-14T10:35:22.469Z,99.90
2022-08-14T10:37:51.482Z,99.90
2022-08-14T10:40:37.657Z,99.90
2022-08-14T10:43:17.675Z,99.90
2022-08-14T10:46:03.883Z,99.90
2022-08-14T10:49:05.059Z,99.90
2022-08-14T10:51:36.257Z,99.90
2022-08-14T10:54:35.046Z,99.90
2022-08-14T10:56:55.776Z,99.70
2022-08-14T10:59:22.787Z,99.80
2022-08-14T11:01:58.244Z,99.60
2022-08-14T11:04:30.116Z,99.10
2022-08-14T11:06:57.034Z,99.00
2022-08-14T11:09:26.248Z,98.30
2022-08-14T11:12:34.764Z,98.40
2022-08-14T11:15:02.999Z,98.10
2022-08-14T11:17:33.028Z,97.90
2022-08-14T11:20:01.278Z,97.90
2022-08-14T11:22:52.388Z,97.90
2022-08-14T11:25:19.343Z,98.10
2022-08-14T11:27:49.056Z,97.40
2022-08-14T11:30:51.263Z,97.70
2022-08-14T11:33:09.017Z,96.50
2022-08-14T11:35:47.436Z,95.60
2022-08-14T11:38:17.899Z,95.40
2022-08-14T11:40:47.065Z,93.60
2022-08-14T11:43:15.176Z,93.70
2022-08-14T11:45:47.697Z,94.00
2022-08-14T11:49:03.835Z,94.10
2022-08-14T11:51:17.762Z,94.10
2022-08-14T11:53:51.478Z,94.00
2022-08-14T11:56:19.148Z,93.80
2022-08-14T11:58:54.179Z,93.80
2022-08-14T12:01:28.768Z,93.80
2022-08-14T12:04:07.629Z,93.80
2022-08-14T12:06:49.156Z,94.00
2022-08-14T12:09:32.461Z,94.00
2022-08-14T12:12:00.128Z,93.60
2022-08-14T12:14:30.669Z,94.00
2022-08-14T12:17:09.408Z,93.00
2022-08-14T12:19:53.761Z,91.80
2022-08-14T12:22:32.592Z,91.90
2022-08-14T12:25:01.183Z,91.90
2022-08-14T12:27:41.267Z,91.50
2022-08-14T12:30:10.078Z,91.70
2022-08-14T12:32:48.100Z,91.50
2022-08-14T12:35:14.951Z,91.60
2022-08-14T12:37:50.812Z,92.00
2022-08-14T12:40:22.860Z,91.00
2022-08-14T12:42:52.663Z,91.60
2022-08-14T12:45:33.113Z,91.50
2022-08-14T12:48:01.817Z,91.70
2022-08-14T12:50:52.752Z,91.40
2022-08-14T12:53:20.692Z,90.90
2022-08-14T12:56:18.458Z,91.10
2022-08-14T12:58:57.496Z,90.50
2022-08-14T13:01:31.234Z,90.50
2022-08-14T13:04:10.150Z,90.00
2022-08-14T13:06:38.321Z,90.20
2022-08-14T13:09:11.113Z,90.20
2022-08-14T13:11:45.553Z,89.80
2022-08-14T13:14:30.018Z,90.00
2022-08-14T13:16:58.485Z,90.40
2022-08-14T13:19:26.688Z,90.00
2022-08-14T13:22:05.601Z,90.20
2022-08-14T13:24:39.849Z,90.00
2022-08-14T13:27:09.823Z,90.00
2022-08-14T13:29:47.187Z,89.10
2022-08-14T13:32:15.025Z,88.00
2022-08-14T13:34:43.652Z,88.30
2022-08-14T13:37:17.213Z,87.40
2022-08-14T13:39:56.103Z,86.70
2022-08-14T13:42:26.258Z,86.30
2022-08-14T13:44:54.745Z,88.00
2022-08-14T13:47:29.715Z,87.60
2022-08-14T13:50:02.565Z,88.60
2022-08-14T13:52:52.254Z,88.90
2022-08-14T13:55:27.920Z,87.30
2022-08-14T13:58:04.118Z,88.40
2022-08-14T14:00:51.674Z,87.00
2022-08-14T14:03:23.369Z,87.10
2022-08-14T14:05:54.296Z,86.70
2022-08-14T14:08:46.092Z,86.70
2022-08-14T14:11:11.203Z,87.60
2022-08-14T14:13:44.962Z,86.40
2022-08-14T14:16:15.424Z,86.30
2022-08-14T14:18:52.154Z,85.50
2022-08-14T14:21:21.481Z,85.60
2022-08-14T14:23:49.140Z,85.50
2022-08-14T14:26:23.050Z,84.60
2022-08-14T14:28:55.217Z,84.70
2022-08-14T14:31:29.902Z,84.20
2022-08-14T14:34:07.542Z,85.20
2022-08-14T14:36:50.197Z,85.10
2022-08-14T14:39:23.373Z,84.80
2022-08-14T14:41:56.026Z,84.50
2022-08-14T14:44:26.881Z,83.40
2022-08-14T14:46:54.361Z,83.40
2022-08-14T14:49:25.967Z,83.40
2022-08-14T14:52:16.834Z,83.00
2022-08-14T14:54:53.254Z,82.60
2022-08-14T14:57:20.594Z,83.40
2022-08-14T14:59:47.811Z,83.20
2022-08-14T15:02:37.145Z,82.30
2022-08-14T15:05:05.050Z,82.70
2022-08-14T15:07:32.400Z,82.90
2022-08-14T15:10:00.015Z,83.30
2022-08-14T15:12:34.403Z,83.50
2022-08-14T15:15:14.744Z,82.70
2022-08-14T15:17:43.024Z,82.80
2022-08-14T15:20:17.263Z,83.10
2022-08-14T15:22:57.312Z,83.20
2022-08-14T15:25:24.266Z,84.20
2022-08-14T15:27:54.434Z,83.10
2022-08-14T15:30:23.661Z,83.10
2022-08-14T15:32:51.362Z,82.40
2022-08-14T15:35:22.595Z,83.10
2022-08-14T15:37:55.812Z,82.70
2022-08-14T15:40:23.276Z,82.50
2022-08-14T15:42:49.940Z,82.80
2022-08-14T15:45:17.074Z,82.50
2022-08-14T15:47:43.821Z,83.30
2022-08-14T15:50:11.127Z,82.40
2022-08-14T15:52:38.231Z,83.20
2022-08-14T15:55:13.082Z,82.90
2022-08-14T15:58:01.646Z,82.50
2022-08-14T16:00:49.475Z,83.10
2022-08-14T16:03:18.041Z,82.00
2022-08-14T16:05:51.690Z,82.30
2022-08-14T16:08:29.365Z,82.60
2022-08-14T16:10:59.747Z,82.00
2022-08-14T16:13:39.856Z,81.70
2022-08-14T16:16:49.279Z,81.20
2022-08-14T16:19:10.181Z,81.10
2022-08-14T16:21:40.553Z,81.00
2022-08-14T16:24:27.784Z,81.10
2022-08-14T16:27:00.394Z,81.70
2022-08-14T16:29:32.931Z,81.50
2022-08-14T16:32:32.070Z,81.90
2022-08-14T16:34:54.775Z,82.90
2022-08-14T16:37:30.457Z,82.40
2022-08-14T16:40:01.577Z,82.90
2022-08-14T16:42:39.027Z,83.70
2022-08-14T16:45:26.113Z,83.80
2022-08-14T16:47:54.181Z,83.90
2022-08-14T16:50:40.650Z,83.30
2022-08-14T16:53:09.717Z,83.90
2022-08-14T16:55:51.063Z,84.70
2022-08-14T16:58:21.552Z,85.70
2022-08-14T17:00:53.246Z,86.70
2022-08-14T17:03:20.689Z,87.10
2022-08-14T17:05:48.090Z,86.30
2022-08-14T17:08:31.644Z,87.30
2022-08-14T17:11:09.889Z,87.40
2022-08-14T17:13:58.370Z,87.90
2022-08-14T17:16:37.904Z,88.30
2022-08-14T17:19:13.571Z,87.50
2022-08-14T17:21:42.360Z,88.00
2022-08-14T17:24:58.201Z,88.20
2022-08-14T17:27:05.077Z,88.90
2022-08-14T17:29:44.508Z,89.00
2022-08-14T17:32:29.758Z,89.00
2022-08-14T17:35:11.746Z,89.20
2022-08-14T17:37:46.088Z,89.60
2022-08-14T17:40:15.752Z,89.20
2022-08-14T17:43:03.261Z,90.10
2022-08-14T17:45:41.076Z,90.10
2022-08-14T17:49:16.254Z,90.00
2022-08-14T17:51:12.186Z,90.20
2022-08-14T17:53:39.328Z,90.10
2022-08-14T17:56:20.666Z,90.20
2022-08-14T17:58:49.189Z,90.40
2022-08-14T18:01:23.673Z,90.60
2022-08-14T18:03:55.911Z,90.60
2022-08-14T18:06:39.399Z,90.80
2022-08-14T18:09:24.651Z,91.40
2022-08-14T18:11:57.833Z,91.40
2022-08-14T18:14:32.789Z,91.70
2022-08-14T18:17:16.102Z,92.50
2022-08-14T18:19:44.545Z,92.20
2022-08-14T18:22:23.640Z,92.30
2022-08-14T18:24:51.708Z,92.10
2022-08-14T18:27:22.787Z,92.80
2022-08-14T18:29:56.877Z,93.00
2022-08-14T18:32:27.407Z,93.00
2022-08-14T18:35:03.631Z,93.10
2022-08-14T18:37:39.339Z,93.70
2022-08-14T18:40:18.284Z,93.70
2022-08-14T18:42:49.292Z,93.10
2022-08-14T18:45:28.682Z,94.10
2022-08-14T18:48:28.797Z,94.40
2022-08-14T18:51:14.327Z,94.40
2022-08-14T18:53:59.629Z,94.80
2022-08-14T18:56:59.163Z,95.00
2022-08-14T18:59:43.204Z,95.10
2022-08-14T19:02:42.327Z,94.90
2022-08-14T19:05:09.846Z,95.10
2022-08-14T19:07:36.525Z,95.40
2022-08-14T19:10:05.883Z,95.90
2022-08-14T19:12:53.702Z,96.10
2022-08-14T19:15:31.298Z,96.30
2022-08-14T19:18:14.301Z,96.60
2022-08-14T19:20:49.065Z,97.50
2022-08-14T19:23:42.625Z,97.50
2022-08-14T19:26:35.875Z,97.80
2022-08-14T19:29:38.306Z,97.80
2022-08-14T19:32:44.485Z,97.70
2022-08-14T19:35:19.078Z,97.70
2022-08-14T19:37:52.630Z,97.80
2022-08-14T19:40:41.874Z,97.60
2022-08-14T19:43:10.153Z,97.30
2022-08-14T19:45:39.741Z,97.20
2022-08-14T19:48:15.565Z,97.30
2022-08-14T19:50:45.958Z,97.40
2022-08-14T19:53:17.709Z,97.50
2022-08-14T19:55:59.177Z,97.80
2022-08-14T19:58:54.842Z,97.90
2022-08-14T20:01:36.975Z,98.10
2022-08-14T20:04:45.389Z,98.30
2022-08-14T20:06:57.470Z,98.60
2022-08-14T20:11:03.590Z,99.10
2022-08-14T20:12:28.678Z,99.40
2022-08-14T20:15:08.460Z,98.90
2022-08-14T20:17:40.199Z,99.10
2022-08-14T20:20:20.890Z,99.20
2022-08-14T20:22:58.805Z,99.60
2022-08-14T20:25:36.582Z,99.10
2022-08-14T20:28:28.922Z,99.20
2022-08-14T20:31:19.874Z,99.50
2022-08-14T20:34:24.658Z,99.90
2022-08-14T20:37:11.539Z,99.70
2022-08-14T20:39:43.576Z,99.70
2022-08-14T20:42:35.828Z,99.70
2022-08-14T20:45:19.721Z,99.90
2022-08-14T20:48:00.993Z,99.90
2022-08-14T20:50:30.208Z,99.90
2022-08-14T20:52:58.533Z,99.90
2022-08-14T20:55:32.069Z,99.90
2022-08-14T20:58:02.472Z,99.90
2022-08-14T21:00:38.247Z,99.90
2022-08-14T21:03:57.268Z,99.90
2022-08-14T21:06:31.120Z,99.90
2022-08-14T21:09:19.298Z,99.90
2022-08-14T21:12:02.629Z,99.90
2022-08-14T21:14:29.934Z,99.90
2022-08-14T21:16:58.458Z,99.90
2022-08-14T21:19:26.578Z,99.90
2022-08-14T21:21:55.477Z,99.90
2022-08-14T21:24:38.659Z,99.90
2022-08-14T21:27:20.133Z,99.90
2022-08-14T21:29:55.069Z,99.90
2022-08-14T21:32:47.301Z,99.90
2022-08-14T21:35:24.375Z,99.90
2022-08-14T21:37:52.358Z,99.90
2022-08-14T21:40:40.000Z,99.90
2022-08-14T21:43:11.620Z,99.90
2022-08-14T21:45:53.161Z,99.90
2022-08-14T21:48:25.434Z,99.90
2022-08-14T21:51:01.414Z,99.90
2022-08-14T21:53:58.654Z,99.90
2022-08-14T21:56:38.313Z,99.90
2022-08-14T21:59:09.474Z,99.90
2022-08-14T22:02:00.461Z,99.90
2022-08-14T22:04:34.265Z,99.90
2022-08-14T22:07:05.404Z,99.90
2022-08-14T22:09:36.202Z,99.90
2022-08-14T22:12:08.309Z,99.90
2022-08-14T22:14:43.851Z,99.90
2022-08-14T22:17:17.082Z,99.90
2022-08-14T22:19:54.417Z,99.90
2022-08-14T22:22:23.409Z,99.90
2022-08-14T22:24:53.287Z,99.90
2022-08-14T22:27:21.416Z,99.90
2022-08-14T22:29:54.561Z,99.90
2022-08-14T22:32:25.987Z,99.90
2022-08-14T22:35:03.790Z,99.90
2022-08-14T22:37:36.644Z,99.90
2022-08-14T22:40:46.689Z,99.90
2022-08-14T22:43:00.235Z,99.90
2022-08-14T22:45:36.353Z,99.90
2022-08-14T22:48:09.669Z,99.90
2022-08-14T22:50:49.137Z,99.90
2022-08-14T22:53:21.842Z,99.90
2022-08-14T22:55:52.026Z,99.90
2022-08-14T22:58:30.370Z,99.90
2022-08-14T23:01:01.021Z,99.90
2022-08-14T23:03:28.926Z,99.90
2022-08-14T23:05:55.690Z,99.90
2022-08-14T23:08:57.651Z,99.90
2022-08-14T23:11:11.313Z,99.90
2022-08-14T23:13:40.467Z,99.90
2022-08-14T23:16:10.537Z,99.90
2022-08-14T23:18:46.934Z,99.90
2022-08-14T23:21:24.665Z,99.90
2022-08-14T23:23:55.089Z,99.90
2022-08-14T23:26:48.181Z,99.90
2022-08-14T23:29:09.325Z,99.90
2022-08-14T23:31:39.400Z,99.90
2022-08-14T23:34:09.442Z,99.90
2022-08-14T23:36:54.030Z,99.90
2022-08-14T23:39:32.063Z,99.90
2022-08-14T23:42:06.101Z,99.90
2022-08-14T23:44:36.730Z,99.90
2022-08-14T23:47:11.028Z,99.90
2022-08-14T23:50:01.211Z,99.90
2022-08-14T23:52:55.917Z,99.90
2022-08-14T23:55:25.427Z,99.90
2022-08-14T23:57:57.989Z,99.90
